| time (UTC) | temp F | wind direction | speed MPH | gust MPH | rain 1hr in | rain 24hr in | rain mn in | humidity % | barometer mb |
| 20260508073603 | 63 | 116 | 1.0 | 3.0 | 0.00 | 0.00 | 0.00 | 73 | 1010.5 |
| 20260508072703 | 62 | 115 | 0.0 | 5.0 | 0.00 | 0.00 | 0.00 | 74 | 1010.3 |
| 20260508071803 | 62 | 92 | 0.0 | 3.0 | 0.00 | 0.00 | 0.00 | 76 | 1010.3 |
| 20260508070903 | 61 | 99 | 1.0 | 3.0 | 0.00 | 0.00 | 0.00 | 77 | 1010.4 |
| 20260508070004 | 61 | 99 | 0.0 | 3.0 | 0.00 | 0.00 | 0.00 | 77 | 1010.4 |
| 20260508065403 | 61 | 117 | 0.0 | 2.0 | 0.00 | 0.00 | 0.00 | 76 | 1010.4 |
| 20260508064719 | 60 | 0 | 0.0 | 0.0 | 0.00 | 0.00 | 0.00 | 79 | 1010.3 |
| 20260508063603 | 59 | 0 | 0.0 | 0.0 | 0.00 | 0.00 | 0.00 | 82 | 1010.3 |
| 20260508062703 | 57 | 0 | 0.0 | 0.0 | 0.00 | 0.00 | 0.00 | 85 | 1010.3 |
| 20260508061803 | 56 | 79 | 0.0 | 1.0 | 0.00 | 0.00 | 0.00 | 86 | 1010.1 |
| 20260508060903 | 56 | 77 | 0.0 | 1.0 | 0.00 | 0.00 | 0.00 | 85 | 1010.1 |
| 20260508060003 | 56 | 0 | 0.0 | 0.0 | 0.00 | 0.00 | 0.00 | 87 | 1010.1 |
| 20260508055403 | 55 | 0 | 0.0 | 0.0 | 0.00 | 0.00 | 0.00 | 87 | 1010.0 |
| 20260508054503 | 55 | 0 | 0.0 | 0.0 | 0.00 | 0.00 | 0.00 | 88 | 1010.1 |
| 20260508053603 | 55 | 0 | 0.0 | 0.0 | 0.00 | 0.00 | 0.00 | 88 | 1009.9 |
| 20260508052703 | 55 | 0 | 0.0 | 0.0 | 0.00 | 0.00 | 0.00 | 87 | 1009.7 |
| 20260508051803 | 55 | 0 | 0.0 | 0.0 | 0.00 | 0.00 | 0.00 | 87 | 1009.3 |
| 20260508050903 | 55 | 0 | 0.0 | 0.0 | 0.00 | 0.00 | 0.00 | 87 | 1009.5 |
| 20260508050003 | 55 | 0 | 0.0 | 0.0 | 0.00 | 0.00 | 0.00 | 86 | 1009.4 |
| 20260508045403 | 56 | 0 | 0.0 | 0.0 | 0.00 | 0.00 | 0.00 | 86 | 1009.3 |
| 20260508044503 | 56 | 0 | 0.0 | 0.0 | 0.00 | 0.00 | 0.00 | 85 | 1009.1 |
| 20260508043603 | 56 | 0 | 0.0 | 0.0 | 0.00 | 0.00 | 0.00 | 84 | 1008.9 |
| 20260508042920 | 56 | 0 | 0.0 | 0.0 | 0.00 | 0.00 | 0.00 | 84 | 1008.6 |
| 20260508041803 | 58 | 0 | 0.0 | 0.0 | 0.00 | 0.00 | 0.00 | 81 | 1008.9 |
| 20260508040903 | 58 | 0 | 0.0 | 0.0 | 0.00 | 0.00 | 0.00 | 81 | 1009.0 |
| 20260508040003 | 58 | 0 | 0.0 | 0.0 | 0.00 | 0.00 | 0.00 | 80 | 1009.2 |
| 20260508035403 | 58 | 0 | 0.0 | 0.0 | 0.00 | 0.00 | 0.00 | 81 | 1009.0 |
| 20260508034503 | 59 | 0 | 0.0 | 0.0 | 0.00 | 0.00 | 0.00 | 80 | 1008.9 |
| 20260508033603 | 59 | 125 | 0.0 | 2.0 | 0.00 | 0.00 | 0.00 | 79 | 1008.9 |
| 20260508032703 | 59 | 128 | 0.0 | 3.0 | 0.00 | 0.00 | 0.00 | 79 | 1009.1 |
| 20260508031803 | 59 | 150 | 0.0 | 3.0 | 0.00 | 0.00 | 0.00 | 79 | 1008.9 |
| 20260508030903 | 59 | 150 | 0.0 | 3.0 | 0.00 | 0.00 | 0.00 | 79 | 1009.4 |
| 20260508030004 | 59 | 157 | 0.0 | 4.0 | 0.00 | 0.00 | 0.00 | 79 | 1009.2 |
| 20260508025403 | 59 | 167 | 0.0 | 3.0 | 0.00 | 0.00 | 0.00 | 79 | 1009.3 |
| 20260508024717 | 59 | 144 | 0.0 | 2.0 | 0.00 | 0.00 | 0.00 | 79 | 1009.3 |
| 20260508023603 | 59 | 169 | 0.0 | 4.0 | 0.00 | 0.00 | 0.00 | 79 | 1009.3 |
| 20260508022703 | 59 | 170 | 1.0 | 5.0 | 0.00 | 0.00 | 0.00 | 79 | 1009.3 |
| 20260508022019 | 59 | 166 | 1.0 | 5.0 | 0.00 | 0.00 | 0.00 | 79 | 1009.4 |
| 20260508020903 | 59 | 159 | 1.0 | 3.0 | 0.00 | 0.00 | 0.00 | 79 | 1009.3 |
| 20260508020003 | 60 | 155 | 1.0 | 4.0 | 0.00 | 0.00 | 0.00 | 78 | 1009.3 |
| 20260508015403 | 60 | 167 | 1.0 | 5.0 | 0.00 | 0.00 | 0.00 | 79 | 1009.3 |
| 20260508014718 | 59 | 174 | 1.0 | 5.0 | 0.00 | 0.00 | 0.00 | 79 | 1009.3 |
| 20260508013603 | 60 | 179 | 1.0 | 3.0 | 0.00 | 0.00 | 0.00 | 79 | 1009.5 |
| 20260508012703 | 60 | 203 | 0.0 | 4.0 | 0.00 | 0.00 | 0.00 | 79 | 1009.5 |
| 20260508011803 | 60 | 197 | 0.0 | 3.0 | 0.00 | 0.00 | 0.00 | 79 | 1009.5 |
| 20260508010903 | 60 | 159 | 0.0 | 4.0 | 0.00 | 0.00 | 0.00 | 79 | 1009.5 |
| 20260508010003 | 60 | 182 | 0.0 | 4.0 | 0.00 | 0.00 | 0.00 | 79 | 1009.7 |
| 20260508005403 | 60 | 178 | 0.0 | 4.0 | 0.00 | 0.00 | 0.00 | 78 | 1009.7 |
| 20260508004503 | 60 | 181 | 0.0 | 4.0 | 0.00 | 0.00 | 0.00 | 77 | 1009.8 |
| 20260508003603 | 60 | 173 | 1.0 | 3.0 | 0.00 | 0.00 | 0.00 | 77 | 1009.8 |
| 20260508002703 | 60 | 172 | 1.0 | 4.0 | 0.00 | 0.00 | 0.00 | 77 | 1009.7 |
| 20260508001803 | 60 | 156 | 0.0 | 3.0 | 0.00 | 0.00 | 0.00 | 76 | 1009.7 |
| 20260508000903 | 61 | 161 | 1.0 | 4.0 | 0.00 | 0.00 | 0.00 | 75 | 1009.8 |
| 20260508000003 | 61 | 180 | 1.0 | 3.0 | 0.00 | 0.00 | 0.00 | 75 | 1009.9 |
| 20260507235403 | 61 | 212 | 0.0 | 2.0 | 0.00 | 0.00 | 0.00 | 75 | 1009.9 |
| 20260507234503 | 61 | 197 | 0.0 | 2.0 | 0.00 | 0.00 | 0.00 | 74 | 1009.9 |
| 20260507233603 | 61 | 0 | 0.0 | 0.0 | 0.00 | 0.00 | 0.00 | 73 | 1009.7 |
| 20260507232918 | 61 | 0 | 0.0 | 0.0 | 0.00 | 0.00 | 0.00 | 73 | 1009.8 |
| 20260507231803 | 61 | 160 | 0.0 | 4.0 | 0.00 | 0.00 | 0.00 | 73 | 1009.9 |
| 20260507230903 | 61 | 137 | 0.0 | 1.0 | 0.00 | 0.00 | 0.00 | 72 | 1010.0 |
| 20260507230003 | 61 | 142 | 0.0 | 3.0 | 0.00 | 0.00 | 0.00 | 70 | 1009.9 |
| 20260507225403 | 61 | 174 | 0.0 | 2.0 | 0.00 | 0.00 | 0.00 | 69 | 1010.2 |
| 20260507224720 | 62 | 183 | 0.0 | 2.0 | 0.00 | 0.00 | 0.00 | 67 | 1010.3 |
| 20260507223603 | 62 | 190 | 0.0 | 2.0 | 0.00 | 0.00 | 0.00 | 65 | 1010.4 |
| 20260507222703 | 62 | 177 | 0.0 | 3.0 | 0.00 | 0.00 | 0.00 | 66 | 1010.4 |
| 20260507222016 | 62 | 176 | 0.0 | 2.0 | 0.00 | 0.00 | 0.00 | 66 | 1010.5 |
| 20260507220903 | 62 | 186 | 0.0 | 2.0 | 0.00 | 0.00 | 0.00 | 66 | 1010.3 |
| 20260507220004 | 62 | 204 | 0.0 | 2.0 | 0.00 | 0.00 | 0.00 | 65 | 1010.2 |
| 20260507215403 | 62 | 206 | 0.0 | 2.0 | 0.00 | 0.00 | 0.00 | 65 | 1010.2 |
| 20260507214720 | 62 | 0 | 0.0 | 0.0 | 0.00 | 0.00 | 0.00 | 65 | 1010.3 |
| 20260507213603 | 63 | 235 | 0.0 | 1.0 | 0.00 | 0.00 | 0.00 | 64 | 1010.3 |
| 20260507212703 | 63 | 0 | 0.0 | 0.0 | 0.00 | 0.00 | 0.00 | 63 | 1010.2 |
| 20260507211803 | 63 | 0 | 0.0 | 0.0 | 0.00 | 0.00 | 0.00 | 64 | 1010.1 |
| 20260507211120 | 63 | 286 | 0.0 | 3.0 | 0.00 | 0.00 | 0.00 | 63 | 1010.1 |
| 20260507210003 | 63 | 278 | 0.0 | 1.0 | 0.00 | 0.00 | 0.00 | 63 | 1009.9 |
| 20260507205403 | 63 | 0 | 0.0 | 0.0 | 0.00 | 0.00 | 0.00 | 62 | 1009.9 |
| 20260507204503 | 63 | 283 | 0.0 | 1.0 | 0.00 | 0.00 | 0.00 | 62 | 1009.9 |
| 20260507203603 | 64 | 283 | 0.0 | 2.0 | 0.00 | 0.00 | 0.00 | 61 | 1009.9 |
| 20260507202703 | 64 | 262 | 0.0 | 2.0 | 0.00 | 0.00 | 0.00 | 60 | 1009.9 |
| 20260507202018 | 64 | 262 | 0.0 | 2.0 | 0.00 | 0.00 | 0.00 | 59 | 1009.9 |
| 20260507200903 | 65 | 263 | 0.0 | 2.0 | 0.00 | 0.00 | 0.00 | 59 | 1009.8 |
| 20260507200003 | 65 | 255 | 0.0 | 5.0 | 0.00 | 0.00 | 0.00 | 59 | 1009.7 |
| 20260507195403 | 65 | 272 | 0.0 | 5.0 | 0.00 | 0.00 | 0.00 | 59 | 1009.8 |
| 20260507194503 | 66 | 251 | 1.0 | 7.0 | 0.00 | 0.00 | 0.00 | 57 | 1009.7 |
| 20260507193819 | 66 | 251 | 1.0 | 7.0 | 0.00 | 0.00 | 0.00 | 56 | 1009.6 |
| 20260507192703 | 66 | 260 | 2.0 | 8.0 | 0.00 | 0.00 | 0.00 | 56 | 1009.4 |
| 20260507192018 | 67 | 252 | 2.0 | 8.0 | 0.00 | 0.00 | 0.00 | 55 | 1009.3 |
| 20260507190903 | 67 | 252 | 2.0 | 8.0 | 0.00 | 0.00 | 0.00 | 55 | 1009.1 |
| 20260507190218 | 68 | 247 | 3.0 | 12.0 | 0.00 | 0.00 | 0.00 | 54 | 1009.0 |
| 20260507185403 | 68 | 250 | 5.0 | 12.0 | 0.00 | 0.00 | 0.00 | 52 | 1008.8 |
| 20260507184503 | 68 | 251 | 5.0 | 14.0 | 0.00 | 0.00 | 0.00 | 51 | 1008.6 |
| 20260507183603 | 69 | 251 | 6.0 | 14.0 | 0.00 | 0.00 | 0.00 | 50 | 1008.5 |
| 20260507182703 | 70 | 255 | 5.0 | 13.0 | 0.00 | 0.00 | 0.00 | 50 | 1008.4 |
| 20260507181803 | 70 | 254 | 5.0 | 12.0 | 0.00 | 0.00 | 0.00 | 50 | 1008.2 |
| 20260507180903 | 71 | 259 | 4.0 | 12.0 | 0.00 | 0.00 | 0.00 | 50 | 1008.2 |
| 20260507180004 | 71 | 251 | 4.0 | 13.0 | 0.00 | 0.00 | 0.00 | 48 | 1008.1 |
| 20260507175403 | 72 | 250 | 4.0 | 11.0 | 0.00 | 0.00 | 0.00 | 47 | 1008.0 |
| 20260507174503 | 72 | 256 | 4.0 | 13.0 | 0.00 | 0.00 | 0.00 | 46 | 1007.8 |
| 20260507173603 | 72 | 254 | 6.0 | 14.0 | 0.00 | 0.00 | 0.00 | 45 | 1007.7 |
| 20260507172703 | 73 | 239 | 6.0 | 13.0 | 0.00 | 0.00 | 0.00 | 44 | 1007.6 |
| 20260507171803 | 73 | 243 | 4.0 | 13.0 | 0.00 | 0.00 | 0.00 | 44 | 1007.6 |
| 20260507170903 | 73 | 245 | 5.0 | 13.0 | 0.00 | 0.00 | 0.00 | 43 | 1007.5 |
| 20260507170003 | 74 | 244 | 5.0 | 12.0 | 0.00 | 0.00 | 0.00 | 43 | 1007.4 |
| 20260507165403 | 74 | 245 | 5.0 | 12.0 | 0.00 | 0.00 | 0.00 | 43 | 1007.4 |
| 20260507164503 | 75 | 253 | 4.0 | 11.0 | 0.00 | 0.00 | 0.00 | 42 | 1007.3 |
| 20260507163821 | 75 | 229 | 4.0 | 11.0 | 0.00 | 0.00 | 0.00 | 42 | 1007.2 |
| 20260507162703 | 76 | 237 | 4.0 | 11.0 | 0.00 | 0.00 | 0.00 | 39 | 1007.2 |
| 20260507161803 | 76 | 242 | 3.0 | 10.0 | 0.00 | 0.00 | 0.00 | 39 | 1007.1 |
| 20260507160903 | 76 | 223 | 2.0 | 10.0 | 0.00 | 0.00 | 0.00 | 37 | 1007.2 |
| 20260507160003 | 76 | 222 | 3.0 | 12.0 | 0.00 | 0.00 | 0.00 | 40 | 1007.0 |
| 20260507155616 | 76 | 219 | 4.0 | 11.0 | 0.00 | 0.00 | 0.00 | 38 | 1007.1 |
| 20260507154503 | 76 | 212 | 3.0 | 11.0 | 0.00 | 0.00 | 0.00 | 38 | 1007.2 |
| 20260507153603 | 76 | 212 | 3.0 | 13.0 | 0.00 | 0.00 | 0.00 | 37 | 1007.1 |
| 20260507152703 | 77 | 206 | 2.0 | 9.0 | 0.00 | 0.00 | 0.00 | 37 | 1007.1 |
| 20260507151803 | 76 | 214 | 1.0 | 9.0 | 0.00 | 0.00 | 0.00 | 37 | 1007.2 |
| 20260507150903 | 76 | 211 | 2.0 | 8.0 | 0.00 | 0.00 | 0.00 | 39 | 1007.3 |
| 20260507150221 | 76 | 231 | 4.0 | 9.0 | 0.00 | 0.00 | 0.00 | 40 | 1007.4 |
| 20260507145403 | 76 | 213 | 4.0 | 10.0 | 0.00 | 0.00 | 0.00 | 41 | 1007.5 |
| 20260507144719 | 76 | 224 | 4.0 | 9.0 | 0.00 | 0.00 | 0.00 | 41 | 1007.4 |
| 20260507143603 | 75 | 211 | 4.0 | 11.0 | 0.00 | 0.00 | 0.00 | 39 | 1007.5 |
| 20260507142703 | 75 | 224 | 3.0 | 9.0 | 0.00 | 0.00 | 0.00 | 40 | 1007.7 |
| 20260507141803 | 76 | 210 | 2.0 | 11.0 | 0.00 | 0.00 | 0.00 | 37 | 1007.8 |
| 20260507140903 | 75 | 235 | 2.0 | 9.0 | 0.00 | 0.00 | 0.00 | 37 | 1007.8 |
| 20260507140003 | 76 | 221 | 2.0 | 10.0 | 0.00 | 0.00 | 0.00 | 38 | 1007.9 |
| 20260507135403 | 76 | 220 | 3.0 | 10.0 | 0.00 | 0.00 | 0.00 | 40 | 1007.9 |
| 20260507134503 | 75 | 225 | 3.0 | 11.0 | 0.00 | 0.00 | 0.00 | 42 | 1008.0 |
| 20260507133603 | 75 | 220 | 2.0 | 10.0 | 0.00 | 0.00 | 0.00 | 42 | 1008.2 |
| 20260507132703 | 75 | 223 | 4.0 | 10.0 | 0.00 | 0.00 | 0.00 | 43 | 1008.2 |
| 20260507131803 | 75 | 227 | 4.0 | 12.0 | 0.00 | 0.00 | 0.00 | 41 | 1008.3 |
| 20260507130903 | 75 | 227 | 4.0 | 10.0 | 0.00 | 0.00 | 0.00 | 41 | 1008.2 |
| 20260507130003 | 76 | 207 | 3.0 | 11.0 | 0.00 | 0.00 | 0.00 | 44 | 1008.3 |
| 20260507125403 | 75 | 190 | 3.0 | 12.0 | 0.00 | 0.00 | 0.00 | 42 | 1008.4 |
| 20260507124503 | 75 | 228 | 4.0 | 12.0 | 0.00 | 0.00 | 0.00 | 42 | 1008.5 |
| 20260507123603 | 75 | 217 | 4.0 | 12.0 | 0.00 | 0.00 | 0.00 | 44 | 1008.5 |
| 20260507122705 | 75 | 223 | 2.0 | 9.0 | 0.00 | 0.00 | 0.00 | 45 | 1008.6 |
| 20260507121803 | 75 | 185 | 2.0 | 10.0 | 0.00 | 0.00 | 0.00 | 45 | 1008.7 |
| 20260507120903 | 74 | 209 | 2.0 | 10.0 | 0.00 | 0.00 | 0.00 | 45 | 1008.8 |
| 20260507120004 | 75 | 194 | 2.0 | 12.0 | 0.00 | 0.00 | 0.00 | 45 | 1008.9 |
| 20260507115403 | 75 | 189 | 3.0 | 11.0 | 0.00 | 0.00 | 0.00 | 46 | 1008.8 |
| 20260507114503 | 74 | 219 | 2.0 | 8.0 | 0.00 | 0.00 | 0.00 | 48 | 1009.0 |
| 20260507113603 | 74 | 199 | 4.0 | 10.0 | 0.00 | 0.00 | 0.00 | 49 | 1009.1 |
| 20260507112703 | 74 | 164 | 5.0 | 9.0 | 0.00 | 0.00 | 0.00 | 49 | 1009.1 |
| 20260507112018 | 73 | 167 | 4.0 | 9.0 | 0.00 | 0.00 | 0.00 | 50 | 1009.3 |
| 20260507111121 | 74 | 168 | 2.0 | 9.0 | 0.00 | 0.00 | 0.00 | 47 | 1009.3 |
| 20260507110003 | 72 | 200 | 2.0 | 10.0 | 0.00 | 0.00 | 0.00 | 49 | 1009.3 |
| 20260507105403 | 72 | 176 | 2.0 | 10.0 | 0.00 | 0.00 | 0.00 | 54 | 1009.4 |
| 20260507104504 | 71 | 123 | 4.0 | 10.0 | 0.00 | 0.00 | 0.00 | 54 | 1009.4 |
| 20260507103603 | 71 | 134 | 3.0 | 12.0 | 0.00 | 0.00 | 0.00 | 55 | 1009.5 |
| 20260507102703 | 72 | 169 | 2.0 | 9.0 | 0.00 | 0.00 | 0.00 | 56 | 1009.6 |
| 20260507101803 | 72 | 180 | 2.0 | 10.0 | 0.00 | 0.00 | 0.00 | 57 | 1009.6 |
| 20260507100903 | 70 | 205 | 3.0 | 10.0 | 0.00 | 0.00 | 0.00 | 58 | 1009.7 |
| 20260507100219 | 70 | 122 | 4.0 | 11.0 | 0.00 | 0.00 | 0.00 | 62 | 1009.8 |
| 20260507095620 | 70 | 129 | 4.0 | 8.0 | 0.00 | 0.00 | 0.00 | 61 | 1009.7 |
| 20260507094503 | 70 | 133 | 3.0 | 10.0 | 0.00 | 0.00 | 0.00 | 59 | 1009.7 |
| 20260507093603 | 70 | 200 | 2.0 | 6.0 | 0.00 | 0.00 | 0.00 | 63 | 1009.8 |
| 20260507092703 | 69 | 179 | 2.0 | 8.0 | 0.00 | 0.00 | 0.00 | 64 | 1009.8 |
| 20260507091803 | 68 | 126 | 1.0 | 7.0 | 0.00 | 0.00 | 0.00 | 67 | 1009.8 |
| 20260507090903 | 67 | 169 | 1.0 | 6.0 | 0.00 | 0.00 | 0.00 | 69 | 1009.9 |
| 20260507090219 | 66 | 176 | 1.0 | 5.0 | 0.00 | 0.00 | 0.00 | 70 | 1009.9 |
| 20260507085403 | 66 | 196 | 1.0 | 6.0 | 0.00 | 0.00 | 0.00 | 72 | 1009.9 |
| 20260507084503 | 66 | 146 | 2.0 | 7.0 | 0.00 | 0.00 | 0.00 | 72 | 1009.8 |
| 20260507083603 | 65 | 119 | 2.0 | 6.0 | 0.00 | 0.00 | 0.00 | 73 | 1009.8 |
| 20260507082703 | 64 | 110 | 3.0 | 8.0 | 0.00 | 0.00 | 0.00 | 73 | 1009.8 |
| 20260507081803 | 64 | 90 | 2.0 | 8.0 | 0.00 | 0.00 | 0.00 | 73 | 1009.7 |
| 20260507080903 | 63 | 99 | 2.0 | 8.0 | 0.00 | 0.00 | 0.00 | 73 | 1009.7 |
| 20260507080003 | 63 | 100 | 1.0 | 6.0 | 0.00 | 0.00 | 0.00 | 74 | 1009.7 |
| 20260507075403 | 63 | 109 | 1.0 | 5.0 | 0.00 | 0.00 | 0.00 | 74 | 1009.6 |
| 20260507074503 | 62 | 97 | 2.0 | 6.0 | 0.00 | 0.00 | 0.00 | 74 | 1009.6 |